createdAt,value
2023-01-03T00:01:53.119Z,87.62
2023-01-03T00:04:25.880Z,87.52
2023-01-03T00:06:58.463Z,87.41
2023-01-03T00:09:31.018Z,87.73
2023-01-03T00:12:28.574Z,87.62
2023-01-03T00:15:04.459Z,88.24
2023-01-03T00:17:37.078Z,88.15
2023-01-03T00:20:11.114Z,88.12
2023-01-03T00:22:43.745Z,88.85
2023-01-03T00:25:16.400Z,89.13
2023-01-03T00:27:49.077Z,89.27
2023-01-03T00:30:21.984Z,89.15
2023-01-03T00:32:54.619Z,88.74
2023-01-03T00:35:27.232Z,88.30
2023-01-03T00:37:59.836Z,88.48
2023-01-03T00:40:32.818Z,88.15
2023-01-03T00:43:24.050Z,88.43
2023-01-03T00:45:56.615Z,87.95
2023-01-03T00:48:29.969Z,88.03
2023-01-03T00:51:31.718Z,88.10
2023-01-03T00:54:06.863Z,87.90
2023-01-03T00:56:44.669Z,87.86
2023-01-03T00:59:19.667Z,88.10
2023-01-03T01:01:56.158Z,87.80
2023-01-03T01:04:31.835Z,87.87
2023-01-03T01:07:04.602Z,88.27
2023-01-03T01:09:38.387Z,88.88
2023-01-03T01:12:10.913Z,88.72
2023-01-03T01:14:43.564Z,88.72
2023-01-03T01:17:22.215Z,89.07
2023-01-03T01:19:55.655Z,90.13
2023-01-03T01:22:28.149Z,89.43
2023-01-03T01:25:01.114Z,89.29
2023-01-03T01:27:33.669Z,89.73
2023-01-03T01:30:06.985Z,89.25
2023-01-03T01:32:39.631Z,89.46
2023-01-03T01:35:12.201Z,89.93
2023-01-03T01:37:44.731Z,89.60
2023-01-03T01:40:19.632Z,88.81
2023-01-03T01:43:10.760Z,88.86
2023-01-03T01:45:46.339Z,88.81
2023-01-03T01:48:18.945Z,88.87
2023-01-03T01:50:56.675Z,88.85
2023-01-03T01:53:34.630Z,89.17
2023-01-03T01:56:25.913Z,89.54
2023-01-03T01:58:58.628Z,89.38
2023-01-03T02:01:31.589Z,89.42
2023-01-03T02:04:26.664Z,88.90
2023-01-03T02:07:01.261Z,89.37
2023-01-03T02:09:35.399Z,88.80
2023-01-03T02:12:57.192Z,89.05
2023-01-03T02:16:13.172Z,88.73
2023-01-03T02:19:18.762Z,89.48
2023-01-03T02:22:27.163Z,89.54
2023-01-03T02:25:15.002Z,89.20
2023-01-03T02:28:12.441Z,88.95
2023-01-03T02:31:05.288Z,89.40
2023-01-03T02:34:21.426Z,90.13
2023-01-03T02:37:26.121Z,89.98
2023-01-03T02:40:23.092Z,89.93
2023-01-03T02:43:08.315Z,89.40
2023-01-03T02:45:40.768Z,89.66
2023-01-03T02:48:33.856Z,89.88
2023-01-03T02:51:20.140Z,89.73
2023-01-03T02:53:53.228Z,90.42
2023-01-03T02:56:35.487Z,90.50
2023-01-03T02:59:19.058Z,90.61
2023-01-03T03:01:53.701Z,89.94
2023-01-03T03:04:27.942Z,89.98
2023-01-03T03:07:13.860Z,90.55
2023-01-03T03:10:05.146Z,90.23
2023-01-03T03:13:02.701Z,89.89
2023-01-03T03:15:46.397Z,90.32
2023-01-03T03:18:33.333Z,90.58
2023-01-03T03:21:29.050Z,90.05
2023-01-03T03:24:47.607Z,90.04
2023-01-03T03:27:43.162Z,90.33
2023-01-03T03:30:22.473Z,90.25
2023-01-03T03:33:01.472Z,90.75
2023-01-03T03:35:46.272Z,90.49
2023-01-03T03:38:33.318Z,89.89
2023-01-03T03:41:33.959Z,90.74
2023-01-03T03:44:53.091Z,89.85
2023-01-03T03:47:33.666Z,89.91
2023-01-03T03:50:38.697Z,89.87
2023-01-03T03:53:14.479Z,90.13
2023-01-03T03:55:58.572Z,89.83
2023-01-03T03:58:41.168Z,90.20
2023-01-03T04:01:21.717Z,90.13
2023-01-03T04:04:02.658Z,89.87
2023-01-03T04:06:47.818Z,90.60
2023-01-03T04:09:20.730Z,90.42
2023-01-03T04:11:53.211Z,90.01
2023-01-03T04:14:25.762Z,90.14
2023-01-03T04:16:58.533Z,89.58
2023-01-03T04:19:31.172Z,89.46
2023-01-03T04:22:03.721Z,89.76
2023-01-03T04:24:36.284Z,89.40
2023-01-03T04:27:08.801Z,89.40
2023-01-03T04:29:41.294Z,89.40
2023-01-03T04:32:14.121Z,89.92
2023-01-03T04:34:46.714Z,89.98
2023-01-03T04:37:19.325Z,89.61
2023-01-03T04:39:51.868Z,89.65
2023-01-03T04:42:44.076Z,90.00
2023-01-03T04:45:17.010Z,89.91
2023-01-03T04:47:49.553Z,90.20
2023-01-03T04:50:22.159Z,89.78
2023-01-03T04:52:54.708Z,90.45
2023-01-03T04:55:27.261Z,90.35
2023-01-03T04:58:00.933Z,89.83
2023-01-03T05:00:33.498Z,89.83
2023-01-03T05:03:06.149Z,90.45
2023-01-03T05:05:39.879Z,90.28
2023-01-03T05:08:13.125Z,90.21
2023-01-03T05:10:45.805Z,90.84
2023-01-03T05:13:18.342Z,90.61
2023-01-03T05:15:50.947Z,89.88
2023-01-03T05:18:23.803Z,90.39
2023-01-03T05:21:15.006Z,90.41
2023-01-03T05:24:06.400Z,90.37
2023-01-03T05:26:41.215Z,90.22
2023-01-03T05:29:19.948Z,90.07
2023-01-03T05:31:53.607Z,90.01
2023-01-03T05:34:26.143Z,90.06
2023-01-03T05:36:58.661Z,90.60
2023-01-03T05:39:31.210Z,90.11
2023-01-03T05:42:04.361Z,90.67
2023-01-03T05:44:37.005Z,90.70
2023-01-03T05:47:11.828Z,90.27
2023-01-03T05:49:44.358Z,90.33
2023-01-03T05:52:17.007Z,90.38
2023-01-03T05:54:49.539Z,90.71
2023-01-03T05:57:22.065Z,90.92
2023-01-03T05:59:54.703Z,90.84
2023-01-03T06:02:28.906Z,91.40
2023-01-03T06:05:01.509Z,91.10
2023-01-03T06:07:36.450Z,90.71
2023-01-03T06:10:09.692Z,90.96
2023-01-03T06:12:42.323Z,90.46
2023-01-03T06:15:14.891Z,90.65
2023-01-03T06:18:02.497Z,90.62
2023-01-03T06:20:35.329Z,90.75
2023-01-03T06:23:07.979Z,90.37
2023-01-03T06:25:40.663Z,90.75
2023-01-03T06:28:13.230Z,90.82
2023-01-03T06:30:45.915Z,90.28
2023-01-03T06:33:18.522Z,90.65
2023-01-03T06:35:51.076Z,90.36
2023-01-03T06:38:23.690Z,90.58
2023-01-03T06:40:56.227Z,90.49
2023-01-03T06:43:29.711Z,90.30
2023-01-03T06:46:21.125Z,89.92
2023-01-03T06:49:12.707Z,90.12
2023-01-03T06:52:07.756Z,90.00
2023-01-03T06:54:40.481Z,90.25
2023-01-03T06:57:26.768Z,91.24
2023-01-03T06:59:59.835Z,90.10
2023-01-03T07:02:32.607Z,90.21
2023-01-03T07:05:05.878Z,89.68
2023-01-03T07:07:38.493Z,89.93
2023-01-03T07:10:11.142Z,89.45
2023-01-03T07:13:02.295Z,89.60
2023-01-03T07:15:35.017Z,91.07
2023-01-03T07:18:07.678Z,90.66
2023-01-03T07:20:45.070Z,91.54
2023-01-03T07:23:18.131Z,91.03
2023-01-03T07:25:55.396Z,91.28
2023-01-03T07:28:28.407Z,90.84
2023-01-03T07:31:04.897Z,91.04
2023-01-03T07:33:42.020Z,91.10
2023-01-03T07:36:16.531Z,90.55
2023-01-03T07:38:49.691Z,90.86
2023-01-03T07:41:22.913Z,91.39
2023-01-03T07:43:55.414Z,90.77
2023-01-03T07:46:32.618Z,90.40
2023-01-03T07:49:11.497Z,90.67
2023-01-03T07:51:48.060Z,90.61
2023-01-03T07:54:20.765Z,90.66
2023-01-03T07:56:53.371Z,90.44
2023-01-03T07:59:25.970Z,90.54
2023-01-03T08:01:58.735Z,90.53
2023-01-03T08:04:31.550Z,90.42
2023-01-03T08:07:04.350Z,90.18
2023-01-03T08:09:55.597Z,91.05
2023-01-03T08:12:47.087Z,90.88
2023-01-03T08:15:19.628Z,90.33
2023-01-03T08:17:52.208Z,90.54
2023-01-03T08:20:24.836Z,90.32
2023-01-03T08:23:00.297Z,90.59
2023-01-03T08:25:32.817Z,90.08
2023-01-03T08:28:08.104Z,89.82
2023-01-03T08:30:45.669Z,90.34
2023-01-03T08:33:20.131Z,91.01
2023-01-03T08:36:03.904Z,90.56
2023-01-03T08:38:45.551Z,90.94
2023-01-03T08:41:24.660Z,90.23
2023-01-03T08:44:02.601Z,90.42
2023-01-03T08:46:38.823Z,89.88
2023-01-03T08:49:12.616Z,90.20
2023-01-03T08:51:45.220Z,89.99
2023-01-03T08:54:17.744Z,89.82
2023-01-03T08:56:50.283Z,90.06
2023-01-03T08:59:22.786Z,89.56
2023-01-03T09:02:00.715Z,89.10
2023-01-03T09:04:33.499Z,89.32
2023-01-03T09:07:06.621Z,89.65
2023-01-03T09:09:39.137Z,89.46
2023-01-03T09:12:11.701Z,89.29
2023-01-03T09:14:44.308Z,89.54
2023-01-03T09:17:16.919Z,89.58
2023-01-03T09:19:49.400Z,88.69
2023-01-03T09:22:21.997Z,88.91
2023-01-03T09:24:55.616Z,88.33
2023-01-03T09:27:29.155Z,88.59
2023-01-03T09:30:01.959Z,88.25
2023-01-03T09:32:34.555Z,88.10
2023-01-03T09:35:08.157Z,88.51
2023-01-03T09:37:44.020Z,87.84
2023-01-03T09:40:21.150Z,88.22
2023-01-03T09:43:12.387Z,87.83
2023-01-03T09:45:53.296Z,87.60
2023-01-03T09:48:34.495Z,87.42
2023-01-03T09:51:44.229Z,87.41
2023-01-03T09:54:42.344Z,87.25
2023-01-03T09:57:54.800Z,87.39
2023-01-03T10:00:56.870Z,87.36
2023-01-03T10:03:52.518Z,86.69
2023-01-03T10:07:01.548Z,87.59
2023-01-03T10:09:45.504Z,86.77
2023-01-03T10:12:59.317Z,86.30
2023-01-03T10:16:17.309Z,87.20
2023-01-03T10:19:16.931Z,87.21
2023-01-03T10:22:10.965Z,86.15
2023-01-03T10:24:48.335Z,85.71
2023-01-03T10:27:26.122Z,86.87
2023-01-03T10:30:06.716Z,86.45
2023-01-03T10:33:34.306Z,85.74
2023-01-03T10:36:08.634Z,85.39
2023-01-03T10:38:47.910Z,84.87
2023-01-03T10:41:33.554Z,84.33
2023-01-03T10:44:06.157Z,84.93
2023-01-03T10:46:53.637Z,84.63
2023-01-03T10:49:31.731Z,84.88
2023-01-03T10:52:14.531Z,84.28
2023-01-03T10:54:55.771Z,84.64
2023-01-03T10:57:43.830Z,83.94
2023-01-03T11:00:34.131Z,84.59
2023-01-03T11:03:10.237Z,83.91
2023-01-03T11:06:09.606Z,84.38
2023-01-03T11:08:49.269Z,83.71
2023-01-03T11:11:42.582Z,83.28
2023-01-03T11:14:23.347Z,83.61
2023-01-03T11:17:02.453Z,84.14
2023-01-03T11:19:35.303Z,83.87
2023-01-03T11:22:25.155Z,83.80
2023-01-03T11:25:09.439Z,84.18
2023-01-03T11:28:13.678Z,84.98
2023-01-03T11:31:52.764Z,84.40
2023-01-03T11:35:25.830Z,84.19
2023-01-03T11:38:57.808Z,84.69
2023-01-03T11:41:48.941Z,84.83
2023-01-03T11:44:57.521Z,84.99
2023-01-03T11:47:36.016Z,85.10
2023-01-03T11:50:24.826Z,84.38
2023-01-03T11:53:19.494Z,84.83
2023-01-03T11:56:20.122Z,84.60
2023-01-03T11:58:58.378Z,83.82
2023-01-03T12:02:15.049Z,83.40
2023-01-03T12:05:24.374Z,83.07
2023-01-03T12:08:41.282Z,82.07
2023-01-03T12:11:43.790Z,81.17
2023-01-03T12:14:40.506Z,80.57
2023-01-03T12:17:19.300Z,79.94
2023-01-03T12:20:11.635Z,79.07
2023-01-03T12:22:54.621Z,79.66
2023-01-03T12:25:36.272Z,79.89
2023-01-03T12:28:11.553Z,78.64
2023-01-03T12:31:03.051Z,79.40
2023-01-03T12:33:45.389Z,78.40
2023-01-03T12:36:37.991Z,78.42
2023-01-03T12:39:55.477Z,78.22
2023-01-03T12:42:54.011Z,77.56
2023-01-03T12:45:49.945Z,78.08
2023-01-03T12:49:10.356Z,77.83
2023-01-03T12:51:43.087Z,78.39
2023-01-03T12:54:33.985Z,78.08
2023-01-03T12:57:52.764Z,78.30
2023-01-03T13:00:58.267Z,78.35
2023-01-03T13:03:40.119Z,78.67
2023-01-03T13:06:37.246Z,78.20
2023-01-03T13:09:36.893Z,78.31
2023-01-03T13:12:21.236Z,78.62
2023-01-03T13:15:15.597Z,77.91
2023-01-03T13:17:49.804Z,77.21
2023-01-03T13:20:31.600Z,77.25
2023-01-03T13:23:33.930Z,76.93
2023-01-03T13:26:06.332Z,77.08
2023-01-03T13:28:40.215Z,77.02
2023-01-03T13:31:18.589Z,77.46
2023-01-03T13:34:31.977Z,76.48
2023-01-03T13:37:07.458Z,76.13
2023-01-03T13:39:52.289Z,75.99
2023-01-03T13:42:33.810Z,76.77
2023-01-03T13:45:29.266Z,75.92
2023-01-03T13:48:17.058Z,76.31
2023-01-03T13:51:25.486Z,76.56
2023-01-03T13:54:24.958Z,76.50
2023-01-03T13:57:03.445Z,77.03
2023-01-03T13:59:44.533Z,76.44
2023-01-03T14:02:39.016Z,76.27
2023-01-03T14:06:06.049Z,76.20
2023-01-03T14:09:22.198Z,77.02
2023-01-03T14:12:22.245Z,77.13
2023-01-03T14:14:57.720Z,77.18
2023-01-03T14:17:34.184Z,77.39
2023-01-03T14:20:13.313Z,76.81
2023-01-03T14:22:51.335Z,76.76
2023-01-03T14:25:43.107Z,76.80
2023-01-03T14:28:24.211Z,76.61
2023-01-03T14:30:58.060Z,76.86
2023-01-03T14:33:46.522Z,76.72
2023-01-03T14:36:19.136Z,76.24
2023-01-03T14:38:54.532Z,76.95
2023-01-03T14:41:35.859Z,77.03
2023-01-03T14:44:11.282Z,77.90
2023-01-03T14:47:05.771Z,77.15
2023-01-03T14:49:49.792Z,77.44
2023-01-03T14:52:38.298Z,77.96
2023-01-03T14:55:20.943Z,78.10
2023-01-03T14:57:55.389Z,77.88
2023-01-03T15:00:35.937Z,78.19
2023-01-03T15:03:13.180Z,78.43
2023-01-03T15:05:45.975Z,78.10
2023-01-03T15:08:27.536Z,78.13
2023-01-03T15:11:08.867Z,78.79
2023-01-03T15:13:47.449Z,78.18
2023-01-03T15:16:33.338Z,78.25
2023-01-03T15:19:28.581Z,78.07
2023-01-03T15:22:23.871Z,78.45
2023-01-03T15:25:09.017Z,78.48
2023-01-03T15:27:45.671Z,78.65
2023-01-03T15:30:26.133Z,78.77
2023-01-03T15:33:20.040Z,78.79
2023-01-03T15:35:54.924Z,79.06
2023-01-03T15:38:35.006Z,79.41
2023-01-03T15:41:42.552Z,78.81
2023-01-03T15:44:24.582Z,79.41
2023-01-03T15:47:06.087Z,79.27
2023-01-03T15:49:47.611Z,79.35
2023-01-03T15:52:22.598Z,79.78
2023-01-03T15:54:57.283Z,79.55
2023-01-03T15:57:31.068Z,79.59
2023-01-03T16:00:11.382Z,79.27
2023-01-03T16:02:44.370Z,79.58
2023-01-03T16:05:22.631Z,79.53
2023-01-03T16:07:55.867Z,79.05
2023-01-03T16:10:28.580Z,79.75
2023-01-03T16:13:01.140Z,79.51
2023-01-03T16:15:33.860Z,79.45
2023-01-03T16:18:06.501Z,79.69
2023-01-03T16:20:39.945Z,79.49
2023-01-03T16:23:31.049Z,80.33
2023-01-03T16:26:04.299Z,79.81
2023-01-03T16:28:36.888Z,79.17
2023-01-03T16:31:33.533Z,78.92
2023-01-03T16:34:17.439Z,79.69
2023-01-03T16:36:50.542Z,79.34
2023-01-03T16:39:26.611Z,79.36
2023-01-03T16:42:14.357Z,79.79
2023-01-03T16:44:48.119Z,79.43
2023-01-03T16:47:24.460Z,80.02
2023-01-03T16:50:12.416Z,79.33
2023-01-03T16:52:53.611Z,79.07
2023-01-03T16:55:35.291Z,78.96
2023-01-03T16:58:15.592Z,78.77
2023-01-03T17:00:49.499Z,78.71
2023-01-03T17:03:22.191Z,79.21
2023-01-03T17:05:54.887Z,78.71
2023-01-03T17:08:40.689Z,78.99
2023-01-03T17:11:16.410Z,78.18
2023-01-03T17:13:49.311Z,78.27
2023-01-03T17:16:25.409Z,78.38
2023-01-03T17:18:57.926Z,78.13
2023-01-03T17:21:34.722Z,78.69
2023-01-03T17:24:22.599Z,78.73
2023-01-03T17:27:03.891Z,78.81
2023-01-03T17:29:41.785Z,79.01
2023-01-03T17:32:19.658Z,79.24
2023-01-03T17:34:52.338Z,79.44
2023-01-03T17:37:26.056Z,78.82
2023-01-03T17:40:00.566Z,78.70
2023-01-03T17:42:33.242Z,78.78
2023-01-03T17:45:25.120Z,78.61
2023-01-03T17:48:17.471Z,78.68
2023-01-03T17:50:50.201Z,78.93
2023-01-03T17:53:24.839Z,79.06
2023-01-03T17:55:57.465Z,78.93
2023-01-03T17:58:35.521Z,78.95
2023-01-03T18:01:08.755Z,78.25
2023-01-03T18:03:41.922Z,78.92
2023-01-03T18:06:25.625Z,78.80
2023-01-03T18:09:11.668Z,79.13
2023-01-03T18:11:44.197Z,78.86
2023-01-03T18:14:16.768Z,78.58
2023-01-03T18:16:54.919Z,78.56
2023-01-03T18:19:27.865Z,79.05
2023-01-03T18:22:00.475Z,79.31
2023-01-03T18:24:33.994Z,78.98
2023-01-03T18:27:08.813Z,79.56
2023-01-03T18:29:42.916Z,79.02
2023-01-03T18:32:31.366Z,79.24
2023-01-03T18:35:04.738Z,79.31
2023-01-03T18:37:38.479Z,78.74
2023-01-03T18:40:19.629Z,79.49
2023-01-03T18:43:10.432Z,79.05
2023-01-03T18:45:43.062Z,78.61
2023-01-03T18:48:19.647Z,78.51
2023-01-03T18:50:58.988Z,79.18
2023-01-03T18:53:33.719Z,79.27
2023-01-03T18:56:06.890Z,78.94
2023-01-03T18:58:55.359Z,79.02
2023-01-03T19:01:31.582Z,79.24
2023-01-03T19:04:04.319Z,78.96
2023-01-03T19:06:45.353Z,78.97
2023-01-03T19:09:28.183Z,79.17
2023-01-03T19:12:01.135Z,79.33
2023-01-03T19:14:33.799Z,78.98
2023-01-03T19:17:18.815Z,78.72
2023-01-03T19:19:51.440Z,79.11
2023-01-03T19:22:30.578Z,79.61
2023-01-03T19:25:09.165Z,79.60
2023-01-03T19:27:49.015Z,79.59
2023-01-03T19:30:37.444Z,80.06
2023-01-03T19:33:16.293Z,79.62
2023-01-03T19:35:49.702Z,79.02
2023-01-03T19:38:22.470Z,78.95
2023-01-03T19:40:55.027Z,79.12
2023-01-03T19:43:28.164Z,79.24
2023-01-03T19:46:00.849Z,79.24
2023-01-03T19:48:33.704Z,78.60
2023-01-03T19:51:06.581Z,79.29
2023-01-03T19:53:39.754Z,79.36
2023-01-03T19:56:22.600Z,79.93
2023-01-03T19:59:00.976Z,79.35
2023-01-03T20:01:58.216Z,79.82
2023-01-03T20:04:30.454Z,79.64
2023-01-03T20:07:09.785Z,79.28
2023-01-03T20:09:42.328Z,79.32
2023-01-03T20:12:21.521Z,80.04
2023-01-03T20:14:59.929Z,79.67
2023-01-03T20:17:35.309Z,79.65
2023-01-03T20:20:11.517Z,79.19
2023-01-03T20:25:38.314Z,79.86
2023-01-03T20:28:28.848Z,79.97
2023-01-03T20:31:01.902Z,79.69
2023-01-03T20:33:34.537Z,79.57
2023-01-03T20:36:22.592Z,79.80
2023-01-03T20:38:56.386Z,79.28
2023-01-03T20:41:38.085Z,79.72
2023-01-03T20:44:10.755Z,79.45
2023-01-03T20:46:43.408Z,79.49
2023-01-03T20:49:22.692Z,79.12
2023-01-03T20:51:55.230Z,79.65
2023-01-03T20:54:27.725Z,79.33
2023-01-03T20:57:00.315Z,80.04
2023-01-03T20:59:32.874Z,79.96
2023-01-03T21:02:05.922Z,79.86
2023-01-03T21:04:39.644Z,79.63
2023-01-03T21:07:52.039Z,80.30
2023-01-03T21:10:36.611Z,79.76
2023-01-03T21:13:10.955Z,79.62
2023-01-03T21:15:43.466Z,79.60
2023-01-03T21:18:16.634Z,79.73
2023-01-03T21:20:49.231Z,79.61
2023-01-03T21:23:23.754Z,79.63
2023-01-03T21:25:56.375Z,79.19
2023-01-03T21:28:29.033Z,79.36
2023-01-03T21:31:05.414Z,79.19
2023-01-03T21:33:38.258Z,78.83
2023-01-03T21:36:23.783Z,78.94
2023-01-03T21:38:58.135Z,78.94
2023-01-03T21:41:55.837Z,79.30
2023-01-03T21:44:28.340Z,78.70
2023-01-03T21:47:00.881Z,78.80
2023-01-03T21:49:33.386Z,78.71
2023-01-03T21:52:05.875Z,78.26
2023-01-03T21:54:38.517Z,78.57
2023-01-03T21:57:11.062Z,78.59
2023-01-03T21:59:43.681Z,77.91
2023-01-03T22:02:35.112Z,78.46
2023-01-03T22:05:08.318Z,78.19
2023-01-03T22:07:40.930Z,78.25
2023-01-03T22:10:16.159Z,78.44
2023-01-03T22:13:16.878Z,77.78
2023-01-03T22:15:49.417Z,77.92
2023-01-03T22:18:22.235Z,78.01
2023-01-03T22:20:54.812Z,77.76
2023-01-03T22:23:27.445Z,77.83
2023-01-03T22:26:14.218Z,77.86
2023-01-03T22:28:47.539Z,77.26
2023-01-03T22:31:24.430Z,77.61
2023-01-03T22:33:56.979Z,77.76
2023-01-03T22:36:29.751Z,77.79
2023-01-03T22:39:02.301Z,78.01
2023-01-03T22:41:34.948Z,77.58
2023-01-03T22:44:07.527Z,77.44
2023-01-03T22:46:40.227Z,77.64
2023-01-03T22:49:12.833Z,77.65
2023-01-03T22:51:45.371Z,77.77
2023-01-03T22:54:17.932Z,77.62
2023-01-03T22:56:51.135Z,77.55
2023-01-03T22:59:25.090Z,77.72
2023-01-03T23:01:58.445Z,77.69
2023-01-03T23:04:31.249Z,77.60
2023-01-03T23:07:03.826Z,77.61
2023-01-03T23:09:36.360Z,77.33
2023-01-03T23:12:27.931Z,77.71
2023-01-03T23:15:00.616Z,78.16
2023-01-03T23:17:51.640Z,78.13
2023-01-03T23:20:31.757Z,78.74
2023-01-03T23:23:05.718Z,78.56
2023-01-03T23:25:38.723Z,78.65
2023-01-03T23:28:11.240Z,79.22
2023-01-03T23:30:43.817Z,79.23
2023-01-03T23:33:16.407Z,79.32
2023-01-03T23:35:49.827Z,79.94
2023-01-03T23:38:22.373Z,81.05
2023-01-03T23:40:54.973Z,81.13
2023-01-03T23:43:28.630Z,81.60
2023-01-03T23:46:01.981Z,81.50
2023-01-03T23:48:34.778Z,83.04
2023-01-03T23:51:09.510Z,82.68
2023-01-03T23:53:43.799Z,83.35
2023-01-03T23:56:20.901Z,84.80
2023-01-03T23:58:53.573Z,84.52
